sensor_id;sensor_type;location;lat;lon;timestamp;P1;durP1;ratioP1;P2;durP2;ratioP2
79375;SDS011;68846;53.150;18.136;2024-02-28T00:00:07;40.50;;;13.80;;
79375;SDS011;68846;53.150;18.136;2024-02-28T00:02:58;35.00;;;14.10;;
79375;SDS011;68846;53.150;18.136;2024-02-28T00:05:25;39.00;;;14.30;;
79375;SDS011;68846;53.150;18.136;2024-02-28T00:07:53;35.30;;;15.10;;
79375;SDS011;68846;53.150;18.136;2024-02-28T00:10:21;36.80;;;14.50;;
79375;SDS011;68846;53.150;18.136;2024-02-28T00:12:49;39.20;;;14.90;;
79375;SDS011;68846;53.150;18.136;2024-02-28T00:15:16;36.10;;;15.00;;
79375;SDS011;68846;53.150;18.136;2024-02-28T00:17:44;34.60;;;14.40;;
79375;SDS011;68846;53.150;18.136;2024-02-28T00:20:12;37.20;;;15.20;;
79375;SDS011;68846;53.150;18.136;2024-02-28T00:22:41;33.10;;;14.90;;
79375;SDS011;68846;53.150;18.136;2024-02-28T00:25:10;32.80;;;14.30;;
79375;SDS011;68846;53.150;18.136;2024-02-28T00:27:38;38.10;;;14.50;;
79375;SDS011;68846;53.150;18.136;2024-02-28T00:30:07;39.00;;;15.20;;
79375;SDS011;68846;53.150;18.136;2024-02-28T00:32:35;31.10;;;13.70;;
79375;SDS011;68846;53.150;18.136;2024-02-28T00:35:03;35.80;;;14.10;;
79375;SDS011;68846;53.150;18.136;2024-02-28T00:37:31;30.50;;;13.20;;
79375;SDS011;68846;53.150;18.136;2024-02-28T00:39:59;36.60;;;13.60;;
79375;SDS011;68846;53.150;18.136;2024-02-28T00:42:27;37.70;;;15.20;;
79375;SDS011;68846;53.150;18.136;2024-02-28T00:44:54;37.10;;;13.80;;
79375;SDS011;68846;53.150;18.136;2024-02-28T00:47:22;26.90;;;12.20;;
79375;SDS011;68846;53.150;18.136;2024-02-28T00:49:50;34.80;;;14.90;;
79375;SDS011;68846;53.150;18.136;2024-02-28T00:52:18;32.70;;;13.40;;
79375;SDS011;68846;53.150;18.136;2024-02-28T00:54:46;35.50;;;14.10;;
79375;SDS011;68846;53.150;18.136;2024-02-28T00:57:14;31.30;;;12.60;;
79375;SDS011;68846;53.150;18.136;2024-02-28T00:59:42;30.10;;;13.10;;
79375;SDS011;68846;53.150;18.136;2024-02-28T01:02:11;33.00;;;13.70;;
79375;SDS011;68846;53.150;18.136;2024-02-28T01:04:41;36.80;;;14.10;;
79375;SDS011;68846;53.150;18.136;2024-02-28T01:07:09;34.30;;;13.60;;
79375;SDS011;68846;53.150;18.136;2024-02-28T01:09:37;40.60;;;15.80;;
79375;SDS011;68846;53.150;18.136;2024-02-28T01:12:05;34.20;;;13.30;;
79375;SDS011;68846;53.150;18.136;2024-02-28T01:14:32;35.20;;;14.00;;
79375;SDS011;68846;53.150;18.136;2024-02-28T01:17:00;31.10;;;13.00;;
79375;SDS011;68846;53.150;18.136;2024-02-28T01:19:28;41.20;;;14.30;;
79375;SDS011;68846;53.150;18.136;2024-02-28T01:26:52;28.50;;;12.20;;
79375;SDS011;68846;53.150;18.136;2024-02-28T01:29:20;34.60;;;13.80;;
79375;SDS011;68846;53.150;18.136;2024-02-28T01:36:43;37.10;;;13.90;;
79375;SDS011;68846;53.150;18.136;2024-02-28T01:47:02;36.00;;;11.50;;
79375;SDS011;68846;53.150;18.136;2024-02-28T01:49:32;31.70;;;11.50;;
79375;SDS011;68846;53.150;18.136;2024-02-28T01:52:00;34.60;;;13.00;;
79375;SDS011;68846;53.150;18.136;2024-02-28T01:54:28;32.40;;;12.60;;
79375;SDS011;68846;53.150;18.136;2024-02-28T02:01:30;28.90;;;11.40;;
79375;SDS011;68846;53.150;18.136;2024-02-28T02:03:58;27.80;;;11.00;;
79375;SDS011;68846;53.150;18.136;2024-02-28T02:06:26;35.50;;;12.30;;
79375;SDS011;68846;53.150;18.136;2024-02-28T02:12:13;27.80;;;11.30;;
79375;SDS011;68846;53.150;18.136;2024-02-28T02:15:06;34.90;;;11.80;;
79375;SDS011;68846;53.150;18.136;2024-02-28T02:17:34;29.30;;;11.40;;
79375;SDS011;68846;53.150;18.136;2024-02-28T02:20:02;30.50;;;13.00;;
79375;SDS011;68846;53.150;18.136;2024-02-28T02:22:37;34.10;;;12.90;;
79375;SDS011;68846;53.150;18.136;2024-02-28T02:31:11;34.20;;;13.90;;
79375;SDS011;68846;53.150;18.136;2024-02-28T02:33:39;35.20;;;12.80;;
79375;SDS011;68846;53.150;18.136;2024-02-28T02:36:07;30.20;;;12.00;;
79375;SDS011;68846;53.150;18.136;2024-02-28T02:38:35;33.10;;;12.80;;
79375;SDS011;68846;53.150;18.136;2024-02-28T02:50:57;39.50;;;12.90;;
79375;SDS011;68846;53.150;18.136;2024-02-28T02:53:24;31.80;;;13.60;;
79375;SDS011;68846;53.150;18.136;2024-02-28T02:55:52;41.40;;;12.40;;
79375;SDS011;68846;53.150;18.136;2024-02-28T02:58:21;34.70;;;13.50;;
79375;SDS011;68846;53.150;18.136;2024-02-28T03:04:09;36.20;;;13.70;;
79375;SDS011;68846;53.150;18.136;2024-02-28T03:10:22;38.40;;;13.00;;
79375;SDS011;68846;53.150;18.136;2024-02-28T03:17:47;35.30;;;13.70;;
79375;SDS011;68846;53.150;18.136;2024-02-28T03:20:14;37.90;;;13.80;;
79375;SDS011;68846;53.150;18.136;2024-02-28T03:22:42;41.60;;;13.80;;
79375;SDS011;68846;53.150;18.136;2024-02-28T03:30:08;33.20;;;13.00;;
79375;SDS011;68846;53.150;18.136;2024-02-28T03:32:35;31.70;;;12.90;;
79375;SDS011;68846;53.150;18.136;2024-02-28T03:35:03;34.00;;;13.10;;
79375;SDS011;68846;53.150;18.136;2024-02-28T03:41:43;39.30;;;14.00;;
79375;SDS011;68846;53.150;18.136;2024-02-28T03:44:11;37.70;;;13.80;;
79375;SDS011;68846;53.150;18.136;2024-02-28T03:51:40;36.50;;;12.90;;
79375;SDS011;68846;53.150;18.136;2024-02-28T03:59:06;36.50;;;12.90;;
79375;SDS011;68846;53.150;18.136;2024-02-28T04:10:39;35.00;;;13.40;;
79375;SDS011;68846;53.150;18.136;2024-02-28T04:13:07;39.40;;;15.00;;
79375;SDS011;68846;53.150;18.136;2024-02-28T04:15:34;36.90;;;14.00;;
79375;SDS011;68846;53.150;18.136;2024-02-28T04:18:03;36.60;;;14.20;;
79375;SDS011;68846;53.150;18.136;2024-02-28T04:25:08;38.00;;;13.40;;
79375;SDS011;68846;53.150;18.136;2024-02-28T04:27:36;37.60;;;13.80;;
79375;SDS011;68846;53.150;18.136;2024-02-28T04:30:05;41.90;;;15.00;;
79375;SDS011;68846;53.150;18.136;2024-02-28T04:40:48;34.20;;;13.90;;
79375;SDS011;68846;53.150;18.136;2024-02-28T04:47:01;33.70;;;11.70;;
79375;SDS011;68846;53.150;18.136;2024-02-28T04:49:30;31.10;;;12.30;;
79375;SDS011;68846;53.150;18.136;2024-02-28T04:51:58;33.20;;;12.90;;
79375;SDS011;68846;53.150;18.136;2024-02-28T04:54:26;32.20;;;12.60;;
79375;SDS011;68846;53.150;18.136;2024-02-28T04:56:54;31.40;;;11.90;;
79375;SDS011;68846;53.150;18.136;2024-02-28T05:03:30;26.70;;;12.00;;
79375;SDS011;68846;53.150;18.136;2024-02-28T05:14:16;33.50;;;11.90;;
79375;SDS011;68846;53.150;18.136;2024-02-28T05:16:44;36.30;;;13.50;;
79375;SDS011;68846;53.150;18.136;2024-02-28T05:19:12;34.20;;;12.80;;
79375;SDS011;68846;53.150;18.136;2024-02-28T05:21:40;32.00;;;13.40;;
79375;SDS011;68846;53.150;18.136;2024-02-28T05:24:09;29.20;;;10.70;;
79375;SDS011;68846;53.150;18.136;2024-02-28T05:26:37;27.70;;;11.10;;
79375;SDS011;68846;53.150;18.136;2024-02-28T05:29:31;27.60;;;10.50;;
79375;SDS011;68846;53.150;18.136;2024-02-28T05:31:58;25.60;;;11.10;;
79375;SDS011;68846;53.150;18.136;2024-02-28T05:34:27;23.00;;;10.00;;
79375;SDS011;68846;53.150;18.136;2024-02-28T05:36:55;24.80;;;10.60;;
79375;SDS011;68846;53.150;18.136;2024-02-28T05:39:23;24.40;;;10.90;;
79375;SDS011;68846;53.150;18.136;2024-02-28T05:42:16;25.40;;;11.00;;
79375;SDS011;68846;53.150;18.136;2024-02-28T05:44:49;22.80;;;10.80;;
79375;SDS011;68846;53.150;18.136;2024-02-28T05:47:17;24.20;;;10.10;;
79375;SDS011;68846;53.150;18.136;2024-02-28T05:50:10;26.20;;;11.50;;
79375;SDS011;68846;53.150;18.136;2024-02-28T05:52:38;21.00;;;9.30;;
79375;SDS011;68846;53.150;18.136;2024-02-28T05:55:09;26.50;;;10.20;;
79375;SDS011;68846;53.150;18.136;2024-02-28T05:57:37;25.40;;;10.60;;
79375;SDS011;68846;53.150;18.136;2024-02-28T06:00:06;24.40;;;10.40;;
79375;SDS011;68846;53.150;18.136;2024-02-28T06:02:39;25.50;;;10.80;;
79375;SDS011;68846;53.150;18.136;2024-02-28T06:10:05;32.10;;;10.90;;
79375;SDS011;68846;53.150;18.136;2024-02-28T06:15:52;23.50;;;9.50;;
79375;SDS011;68846;53.150;18.136;2024-02-28T06:18:19;23.40;;;10.80;;
79375;SDS011;68846;53.150;18.136;2024-02-28T06:24:57;27.50;;;11.10;;
79375;SDS011;68846;53.150;18.136;2024-02-28T06:27:25;25.20;;;10.10;;
79375;SDS011;68846;53.150;18.136;2024-02-28T06:29:54;32.80;;;12.00;;
79375;SDS011;68846;53.150;18.136;2024-02-28T06:32:23;27.00;;;11.20;;
79375;SDS011;68846;53.150;18.136;2024-02-28T06:34:52;39.10;;;13.60;;
79375;SDS011;68846;53.150;18.136;2024-02-28T06:40:40;32.80;;;11.40;;
79375;SDS011;68846;53.150;18.136;2024-02-28T06:43:08;29.20;;;11.60;;
79375;SDS011;68846;53.150;18.136;2024-02-28T06:45:36;29.10;;;11.50;;
79375;SDS011;68846;53.150;18.136;2024-02-28T06:48:05;32.10;;;11.60;;
79375;SDS011;68846;53.150;18.136;2024-02-28T06:50:34;32.30;;;12.40;;
79375;SDS011;68846;53.150;18.136;2024-02-28T06:53:27;29.70;;;11.70;;
79375;SDS011;68846;53.150;18.136;2024-02-28T06:55:55;24.60;;;10.00;;
79375;SDS011;68846;53.150;18.136;2024-02-28T06:58:22;26.30;;;9.50;;
79375;SDS011;68846;53.150;18.136;2024-02-28T07:00:53;23.00;;;9.90;;
79375;SDS011;68846;53.150;18.136;2024-02-28T07:03:20;26.50;;;9.50;;
79375;SDS011;68846;53.150;18.136;2024-02-28T07:05:48;22.70;;;10.30;;
79375;SDS011;68846;53.150;18.136;2024-02-28T07:08:16;24.60;;;9.90;;
79375;SDS011;68846;53.150;18.136;2024-02-28T07:10:44;26.10;;;11.20;;
79375;SDS011;68846;53.150;18.136;2024-02-28T07:13:15;26.30;;;10.70;;
79375;SDS011;68846;53.150;18.136;2024-02-28T07:15:43;29.70;;;11.50;;
79375;SDS011;68846;53.150;18.136;2024-02-28T07:18:11;31.20;;;11.70;;
79375;SDS011;68846;53.150;18.136;2024-02-28T07:20:39;28.60;;;11.30;;
79375;SDS011;68846;53.150;18.136;2024-02-28T07:23:08;26.80;;;10.60;;
79375;SDS011;68846;53.150;18.136;2024-02-28T07:25:36;26.60;;;11.10;;
79375;SDS011;68846;53.150;18.136;2024-02-28T07:28:04;29.60;;;12.20;;
79375;SDS011;68846;53.150;18.136;2024-02-28T07:30:32;26.00;;;11.30;;
79375;SDS011;68846;53.150;18.136;2024-02-28T07:32:59;28.00;;;12.20;;
79375;SDS011;68846;53.150;18.136;2024-02-28T07:35:27;30.00;;;10.80;;
79375;SDS011;68846;53.150;18.136;2024-02-28T07:37:55;28.10;;;11.70;;
79375;SDS011;68846;53.150;18.136;2024-02-28T07:44:55;30.30;;;12.40;;
79375;SDS011;68846;53.150;18.136;2024-02-28T07:47:24;31.00;;;11.60;;
79375;SDS011;68846;53.150;18.136;2024-02-28T07:49:52;30.90;;;11.70;;
79375;SDS011;68846;53.150;18.136;2024-02-28T07:52:20;28.60;;;10.80;;
79375;SDS011;68846;53.150;18.136;2024-02-28T07:54:48;25.60;;;9.70;;
79375;SDS011;68846;53.150;18.136;2024-02-28T07:57:16;30.00;;;11.00;;
79375;SDS011;68846;53.150;18.136;2024-02-28T07:59:44;30.30;;;11.00;;
79375;SDS011;68846;53.150;18.136;2024-02-28T08:02:12;27.80;;;10.50;;
79375;SDS011;68846;53.150;18.136;2024-02-28T08:04:40;26.70;;;10.30;;
79375;SDS011;68846;53.150;18.136;2024-02-28T08:07:08;24.70;;;10.90;;
79375;SDS011;68846;53.150;18.136;2024-02-28T08:09:35;26.30;;;10.40;;
79375;SDS011;68846;53.150;18.136;2024-02-28T08:12:05;24.20;;;10.30;;
79375;SDS011;68846;53.150;18.136;2024-02-28T08:14:32;22.70;;;9.20;;
79375;SDS011;68846;53.150;18.136;2024-02-28T08:17:00;21.40;;;10.10;;
79375;SDS011;68846;53.150;18.136;2024-02-28T08:19:28;23.10;;;10.10;;
79375;SDS011;68846;53.150;18.136;2024-02-28T08:21:56;20.40;;;8.90;;
79375;SDS011;68846;53.150;18.136;2024-02-28T08:24:24;22.50;;;9.50;;
79375;SDS011;68846;53.150;18.136;2024-02-28T08:26:52;20.30;;;9.00;;
79375;SDS011;68846;53.150;18.136;2024-02-28T08:29:19;20.80;;;8.70;;
79375;SDS011;68846;53.150;18.136;2024-02-28T08:31:47;21.80;;;9.00;;
79375;SDS011;68846;53.150;18.136;2024-02-28T08:34:15;18.10;;;8.80;;
79375;SDS011;68846;53.150;18.136;2024-02-28T08:40:06;18.80;;;9.20;;
79375;SDS011;68846;53.150;18.136;2024-02-28T08:42:35;18.50;;;8.40;;
79375;SDS011;68846;53.150;18.136;2024-02-28T08:45:03;20.50;;;9.60;;
79375;SDS011;68846;53.150;18.136;2024-02-28T08:47:31;19.40;;;8.20;;
79375;SDS011;68846;53.150;18.136;2024-02-28T08:49:59;17.50;;;7.80;;
79375;SDS011;68846;53.150;18.136;2024-02-28T08:52:27;17.00;;;8.00;;
79375;SDS011;68846;53.150;18.136;2024-02-28T08:54:55;17.30;;;8.30;;
79375;SDS011;68846;53.150;18.136;2024-02-28T08:57:23;19.80;;;8.60;;
79375;SDS011;68846;53.150;18.136;2024-02-28T08:59:51;17.60;;;8.20;;
79375;SDS011;68846;53.150;18.136;2024-02-28T09:02:19;18.30;;;8.60;;
79375;SDS011;68846;53.150;18.136;2024-02-28T09:04:46;19.40;;;9.70;;
79375;SDS011;68846;53.150;18.136;2024-02-28T09:07:18;20.20;;;8.10;;
79375;SDS011;68846;53.150;18.136;2024-02-28T09:09:49;17.80;;;8.20;;
79375;SDS011;68846;53.150;18.136;2024-02-28T09:12:17;19.20;;;8.70;;
79375;SDS011;68846;53.150;18.136;2024-02-28T09:14:46;16.40;;;8.90;;
79375;SDS011;68846;53.150;18.136;2024-02-28T09:17:14;20.70;;;9.30;;
79375;SDS011;68846;53.150;18.136;2024-02-28T09:19:42;18.00;;;8.10;;
79375;SDS011;68846;53.150;18.136;2024-02-28T09:22:10;18.60;;;9.50;;
79375;SDS011;68846;53.150;18.136;2024-02-28T09:24:38;19.50;;;9.20;;
79375;SDS011;68846;53.150;18.136;2024-02-28T09:27:06;17.60;;;7.80;;
79375;SDS011;68846;53.150;18.136;2024-02-28T09:29:34;18.80;;;8.50;;
79375;SDS011;68846;53.150;18.136;2024-02-28T09:32:02;21.60;;;9.60;;
79375;SDS011;68846;53.150;18.136;2024-02-28T09:34:30;21.60;;;9.90;;
79375;SDS011;68846;53.150;18.136;2024-02-28T09:36:58;21.10;;;9.20;;
79375;SDS011;68846;53.150;18.136;2024-02-28T09:39:26;21.00;;;10.30;;
79375;SDS011;68846;53.150;18.136;2024-02-28T09:41:53;17.80;;;8.80;;
79375;SDS011;68846;53.150;18.136;2024-02-28T09:44:21;19.30;;;9.00;;
79375;SDS011;68846;53.150;18.136;2024-02-28T09:46:51;20.30;;;9.80;;
79375;SDS011;68846;53.150;18.136;2024-02-28T09:49:20;21.90;;;10.40;;
79375;SDS011;68846;53.150;18.136;2024-02-28T09:51:49;18.40;;;8.60;;
79375;SDS011;68846;53.150;18.136;2024-02-28T09:54:20;20.90;;;9.20;;
79375;SDS011;68846;53.150;18.136;2024-02-28T09:56:48;22.70;;;10.30;;
79375;SDS011;68846;53.150;18.136;2024-02-28T10:01:56;20.20;;;8.40;;
79375;SDS011;68846;53.150;18.136;2024-02-28T10:04:28;17.80;;;8.60;;
79375;SDS011;68846;53.150;18.136;2024-02-28T10:06:56;22.80;;;10.30;;
79375;SDS011;68846;53.150;18.136;2024-02-28T10:13:57;18.40;;;8.40;;
79375;SDS011;68846;53.150;18.136;2024-02-28T10:16:26;22.80;;;9.00;;
79375;SDS011;68846;53.150;18.136;2024-02-28T10:25:55;18.70;;;8.80;;
79375;SDS011;68846;53.150;18.136;2024-02-28T10:28:23;20.70;;;9.20;;
79375;SDS011;68846;53.150;18.136;2024-02-28T10:30:51;21.00;;;8.50;;
79375;SDS011;68846;53.150;18.136;2024-02-28T10:33:21;20.50;;;9.10;;
79375;SDS011;68846;53.150;18.136;2024-02-28T10:35:50;18.40;;;9.00;;
79375;SDS011;68846;53.150;18.136;2024-02-28T10:38:21;24.20;;;10.50;;
79375;SDS011;68846;53.150;18.136;2024-02-28T10:40:49;22.10;;;9.90;;
79375;SDS011;68846;53.150;18.136;2024-02-28T10:43:18;20.60;;;9.50;;
79375;SDS011;68846;53.150;18.136;2024-02-28T10:45:47;22.90;;;11.00;;
79375;SDS011;68846;53.150;18.136;2024-02-28T10:48:15;21.40;;;10.50;;
79375;SDS011;68846;53.150;18.136;2024-02-28T10:50:44;25.20;;;10.20;;
79375;SDS011;68846;53.150;18.136;2024-02-28T10:53:14;23.70;;;10.10;;
79375;SDS011;68846;53.150;18.136;2024-02-28T10:55:44;25.30;;;9.20;;
79375;SDS011;68846;53.150;18.136;2024-02-28T10:58:15;24.20;;;9.90;;
79375;SDS011;68846;53.150;18.136;2024-02-28T11:00:47;24.40;;;9.70;;
79375;SDS011;68846;53.150;18.136;2024-02-28T11:03:17;19.10;;;9.60;;
79375;SDS011;68846;53.150;18.136;2024-02-28T11:05:45;23.30;;;10.10;;
79375;SDS011;68846;53.150;18.136;2024-02-28T11:12:40;22.60;;;9.20;;
79375;SDS011;68846;53.150;18.136;2024-02-28T11:15:16;19.40;;;9.60;;
79375;SDS011;68846;53.150;18.136;2024-02-28T11:18:09;23.80;;;10.80;;
79375;SDS011;68846;53.150;18.136;2024-02-28T11:20:37;21.20;;;9.60;;
79375;SDS011;68846;53.150;18.136;2024-02-28T11:23:09;21.30;;;8.90;;
79375;SDS011;68846;53.150;18.136;2024-02-28T11:25:37;18.60;;;9.30;;
79375;SDS011;68846;53.150;18.136;2024-02-28T11:31:23;18.70;;;8.80;;
79375;SDS011;68846;53.150;18.136;2024-02-28T11:33:51;21.10;;;9.70;;
79375;SDS011;68846;53.150;18.136;2024-02-28T11:40:08;23.30;;;10.40;;
79375;SDS011;68846;53.150;18.136;2024-02-28T11:42:40;22.00;;;8.90;;
79375;SDS011;68846;53.150;18.136;2024-02-28T11:50:33;16.30;;;8.60;;
79375;SDS011;68846;53.150;18.136;2024-02-28T11:53:01;18.40;;;9.30;;
79375;SDS011;68846;53.150;18.136;2024-02-28T11:55:30;18.70;;;9.70;;
79375;SDS011;68846;53.150;18.136;2024-02-28T11:57:58;19.20;;;9.20;;
79375;SDS011;68846;53.150;18.136;2024-02-28T12:04:35;17.50;;;9.00;;
79375;SDS011;68846;53.150;18.136;2024-02-28T12:07:03;18.30;;;9.00;;
79375;SDS011;68846;53.150;18.136;2024-02-28T12:09:31;15.70;;;8.20;;
79375;SDS011;68846;53.150;18.136;2024-02-28T12:21:09;17.70;;;9.70;;
79375;SDS011;68846;53.150;18.136;2024-02-28T12:23:38;17.80;;;9.40;;
79375;SDS011;68846;53.150;18.136;2024-02-28T12:26:06;15.90;;;9.10;;
79375;SDS011;68846;53.150;18.136;2024-02-28T12:28:34;15.20;;;8.60;;
79375;SDS011;68846;53.150;18.136;2024-02-28T12:31:02;18.90;;;9.70;;
79375;SDS011;68846;53.150;18.136;2024-02-28T12:37:13;19.20;;;9.10;;
79375;SDS011;68846;53.150;18.136;2024-02-28T12:43:23;16.90;;;8.90;;
79375;SDS011;68846;53.150;18.136;2024-02-28T12:45:53;17.50;;;9.70;;
79375;SDS011;68846;53.150;18.136;2024-02-28T12:48:20;16.70;;;9.00;;
79375;SDS011;68846;53.150;18.136;2024-02-28T12:50:48;19.40;;;9.40;;
79375;SDS011;68846;53.150;18.136;2024-02-28T12:53:16;15.40;;;8.50;;
79375;SDS011;68846;53.150;18.136;2024-02-28T12:55:44;19.20;;;9.10;;
79375;SDS011;68846;53.150;18.136;2024-02-28T12:58:13;15.90;;;8.50;;
79375;SDS011;68846;53.150;18.136;2024-02-28T13:00:40;16.00;;;8.60;;
79375;SDS011;68846;53.150;18.136;2024-02-28T13:03:08;18.80;;;9.10;;
79375;SDS011;68846;53.150;18.136;2024-02-28T13:05:36;17.90;;;8.70;;
79375;SDS011;68846;53.150;18.136;2024-02-28T13:08:06;15.70;;;8.30;;
79375;SDS011;68846;53.150;18.136;2024-02-28T13:10:33;16.30;;;8.50;;
79375;SDS011;68846;53.150;18.136;2024-02-28T13:13:08;16.00;;;8.80;;
79375;SDS011;68846;53.150;18.136;2024-02-28T13:15:36;15.90;;;8.60;;
79375;SDS011;68846;53.150;18.136;2024-02-28T13:21:45;16.80;;;8.00;;
79375;SDS011;68846;53.150;18.136;2024-02-28T13:29:11;13.40;;;7.50;;
79375;SDS011;68846;53.150;18.136;2024-02-28T13:31:39;14.90;;;8.30;;
79375;SDS011;68846;53.150;18.136;2024-02-28T13:37:25;13.90;;;7.50;;
79375;SDS011;68846;53.150;18.136;2024-02-28T13:39:53;11.10;;;7.30;;
79375;SDS011;68846;53.150;18.136;2024-02-28T13:42:20;13.10;;;7.80;;
79375;SDS011;68846;53.150;18.136;2024-02-28T13:44:49;17.10;;;8.70;;
79375;SDS011;68846;53.150;18.136;2024-02-28T13:47:16;13.80;;;7.70;;
79375;SDS011;68846;53.150;18.136;2024-02-28T13:49:44;12.90;;;7.50;;
79375;SDS011;68846;53.150;18.136;2024-02-28T13:52:12;17.10;;;8.20;;
79375;SDS011;68846;53.150;18.136;2024-02-28T13:54:40;14.00;;;7.30;;
79375;SDS011;68846;53.150;18.136;2024-02-28T13:57:08;13.30;;;7.00;;
79375;SDS011;68846;53.150;18.136;2024-02-28T14:00:01;15.70;;;7.50;;
79375;SDS011;68846;53.150;18.136;2024-02-28T14:02:38;12.00;;;6.90;;
79375;SDS011;68846;53.150;18.136;2024-02-28T14:05:06;11.20;;;6.50;;
79375;SDS011;68846;53.150;18.136;2024-02-28T14:07:37;14.00;;;8.20;;
79375;SDS011;68846;53.150;18.136;2024-02-28T14:15:04;13.30;;;7.80;;
79375;SDS011;68846;53.150;18.136;2024-02-28T14:17:32;14.80;;;7.60;;
79375;SDS011;68846;53.150;18.136;2024-02-28T14:20:00;14.30;;;7.10;;
79375;SDS011;68846;53.150;18.136;2024-02-28T14:22:28;14.80;;;7.70;;
79375;SDS011;68846;53.150;18.136;2024-02-28T14:24:55;16.10;;;8.40;;
79375;SDS011;68846;53.150;18.136;2024-02-28T14:27:23;14.70;;;8.10;;
79375;SDS011;68846;53.150;18.136;2024-02-28T14:29:54;15.60;;;8.40;;
79375;SDS011;68846;53.150;18.136;2024-02-28T14:32:21;14.10;;;8.00;;
79375;SDS011;68846;53.150;18.136;2024-02-28T14:34:49;19.70;;;8.40;;
79375;SDS011;68846;53.150;18.136;2024-02-28T14:37:18;14.10;;;8.20;;
79375;SDS011;68846;53.150;18.136;2024-02-28T14:39:46;14.50;;;7.50;;
79375;SDS011;68846;53.150;18.136;2024-02-28T14:42:13;12.70;;;6.80;;
79375;SDS011;68846;53.150;18.136;2024-02-28T14:44:41;15.40;;;8.10;;
79375;SDS011;68846;53.150;18.136;2024-02-28T14:47:09;14.50;;;7.90;;
79375;SDS011;68846;53.150;18.136;2024-02-28T14:49:37;17.80;;;9.10;;
79375;SDS011;68846;53.150;18.136;2024-02-28T14:52:04;16.30;;;8.70;;
79375;SDS011;68846;53.150;18.136;2024-02-28T14:54:32;18.90;;;9.20;;
79375;SDS011;68846;53.150;18.136;2024-02-28T14:57:00;15.00;;;7.90;;
79375;SDS011;68846;53.150;18.136;2024-02-28T14:59:28;15.40;;;8.90;;
79375;SDS011;68846;53.150;18.136;2024-02-28T15:01:56;17.00;;;7.90;;
79375;SDS011;68846;53.150;18.136;2024-02-28T15:04:24;16.20;;;8.30;;
79375;SDS011;68846;53.150;18.136;2024-02-28T15:06:52;15.00;;;9.40;;
79375;SDS011;68846;53.150;18.136;2024-02-28T15:09:19;21.20;;;10.10;;
79375;SDS011;68846;53.150;18.136;2024-02-28T15:11:48;16.30;;;7.50;;
79375;SDS011;68846;53.150;18.136;2024-02-28T15:14:16;16.20;;;8.80;;
79375;SDS011;68846;53.150;18.136;2024-02-28T15:16:44;18.20;;;10.10;;
79375;SDS011;68846;53.150;18.136;2024-02-28T15:19:12;16.20;;;9.00;;
79375;SDS011;68846;53.150;18.136;2024-02-28T15:21:40;16.90;;;9.50;;
79375;SDS011;68846;53.150;18.136;2024-02-28T15:24:08;17.60;;;9.70;;
79375;SDS011;68846;53.150;18.136;2024-02-28T15:26:36;18.10;;;9.10;;
79375;SDS011;68846;53.150;18.136;2024-02-28T15:29:04;17.90;;;8.30;;
79375;SDS011;68846;53.150;18.136;2024-02-28T15:31:32;15.30;;;8.90;;
79375;SDS011;68846;53.150;18.136;2024-02-28T15:34:01;21.10;;;10.40;;
79375;SDS011;68846;53.150;18.136;2024-02-28T15:36:29;18.60;;;8.70;;
79375;SDS011;68846;53.150;18.136;2024-02-28T15:38:56;17.40;;;9.20;;
79375;SDS011;68846;53.150;18.136;2024-02-28T15:41:25;20.70;;;9.50;;
79375;SDS011;68846;53.150;18.136;2024-02-28T15:43:53;20.20;;;10.40;;
79375;SDS011;68846;53.150;18.136;2024-02-28T15:46:21;21.70;;;10.10;;
79375;SDS011;68846;53.150;18.136;2024-02-28T15:48:49;20.40;;;10.40;;
79375;SDS011;68846;53.150;18.136;2024-02-28T15:51:17;20.90;;;10.10;;
79375;SDS011;68846;53.150;18.136;2024-02-28T15:53:45;19.70;;;11.30;;
79375;SDS011;68846;53.150;18.136;2024-02-28T15:56:14;18.70;;;9.60;;
79375;SDS011;68846;53.150;18.136;2024-02-28T15:58:42;21.40;;;11.00;;
79375;SDS011;68846;53.150;18.136;2024-02-28T16:01:11;19.80;;;11.00;;
79375;SDS011;68846;53.150;18.136;2024-02-28T16:03:39;26.20;;;12.70;;
79375;SDS011;68846;53.150;18.136;2024-02-28T16:06:10;22.20;;;10.50;;
79375;SDS011;68846;53.150;18.136;2024-02-28T16:08:41;25.60;;;12.10;;
79375;SDS011;68846;53.150;18.136;2024-02-28T16:11:10;28.10;;;12.90;;
79375;SDS011;68846;53.150;18.136;2024-02-28T16:13:38;24.80;;;11.60;;
79375;SDS011;68846;53.150;18.136;2024-02-28T16:16:07;23.90;;;11.60;;
79375;SDS011;68846;53.150;18.136;2024-02-28T16:18:34;23.60;;;11.30;;
79375;SDS011;68846;53.150;18.136;2024-02-28T16:21:02;22.90;;;9.60;;
79375;SDS011;68846;53.150;18.136;2024-02-28T16:23:31;24.60;;;11.90;;
79375;SDS011;68846;53.150;18.136;2024-02-28T16:25:59;25.30;;;11.70;;
79375;SDS011;68846;53.150;18.136;2024-02-28T16:28:27;23.50;;;10.50;;
79375;SDS011;68846;53.150;18.136;2024-02-28T16:30:55;20.60;;;9.30;;
79375;SDS011;68846;53.150;18.136;2024-02-28T16:33:25;19.30;;;9.60;;
79375;SDS011;68846;53.150;18.136;2024-02-28T16:35:53;22.30;;;10.30;;
79375;SDS011;68846;53.150;18.136;2024-02-28T16:38:26;18.80;;;9.00;;
79375;SDS011;68846;53.150;18.136;2024-02-28T16:40:54;20.00;;;10.40;;
79375;SDS011;68846;53.150;18.136;2024-02-28T16:43:22;18.70;;;10.10;;
79375;SDS011;68846;53.150;18.136;2024-02-28T16:45:49;19.40;;;9.10;;
79375;SDS011;68846;53.150;18.136;2024-02-28T16:48:19;20.40;;;9.40;;
79375;SDS011;68846;53.150;18.136;2024-02-28T16:50:47;19.30;;;9.10;;
79375;SDS011;68846;53.150;18.136;2024-02-28T16:53:15;21.80;;;10.30;;
79375;SDS011;68846;53.150;18.136;2024-02-28T16:55:43;17.20;;;9.40;;
79375;SDS011;68846;53.150;18.136;2024-02-28T16:58:10;22.40;;;9.70;;
79375;SDS011;68846;53.150;18.136;2024-02-28T17:00:39;21.60;;;10.60;;
79375;SDS011;68846;53.150;18.136;2024-02-28T17:03:07;22.50;;;10.50;;
79375;SDS011;68846;53.150;18.136;2024-02-28T17:05:35;17.00;;;8.70;;
79375;SDS011;68846;53.150;18.136;2024-02-28T17:08:06;20.70;;;10.70;;
79375;SDS011;68846;53.150;18.136;2024-02-28T17:10:36;15.90;;;8.30;;
79375;SDS011;68846;53.150;18.136;2024-02-28T17:13:04;16.60;;;8.80;;
79375;SDS011;68846;53.150;18.136;2024-02-28T17:15:32;16.00;;;9.10;;
79375;SDS011;68846;53.150;18.136;2024-02-28T17:18:00;14.10;;;7.50;;
79375;SDS011;68846;53.150;18.136;2024-02-28T17:20:27;16.20;;;8.30;;
79375;SDS011;68846;53.150;18.136;2024-02-28T17:22:56;12.80;;;6.90;;
79375;SDS011;68846;53.150;18.136;2024-02-28T17:25:24;14.70;;;8.30;;
79375;SDS011;68846;53.150;18.136;2024-02-28T17:27:52;14.00;;;7.90;;
79375;SDS011;68846;53.150;18.136;2024-02-28T17:30:20;16.50;;;8.50;;
79375;SDS011;68846;53.150;18.136;2024-02-28T17:32:50;15.70;;;7.80;;
79375;SDS011;68846;53.150;18.136;2024-02-28T17:35:18;15.80;;;7.60;;
79375;SDS011;68846;53.150;18.136;2024-02-28T17:37:45;15.20;;;7.50;;
79375;SDS011;68846;53.150;18.136;2024-02-28T17:40:14;14.80;;;8.00;;
79375;SDS011;68846;53.150;18.136;2024-02-28T17:42:42;15.60;;;7.60;;
79375;SDS011;68846;53.150;18.136;2024-02-28T17:45:10;16.00;;;7.70;;
79375;SDS011;68846;53.150;18.136;2024-02-28T17:47:38;17.20;;;7.80;;